Time;durP1;ratioP1;P1;durP2;ratioP2;P2;SDS_P1;SDS_P2;PMS_P1;PMS_P2;Temp;Humidity;BMP_temperature;BMP_pressure;BME280_temperature;BME280_humidity;BME280_pressure;Samples;Min_cycle;Max_cycle;Signal;HPM_P1;HPM_P2
2022/11/19 00:01:26;;;;;;;223.05;158.02;;;307.80;2304.00;;;;;;6219511;23;20030;-83
2022/11/19 00:03:52;;;;;;;249.13;177.63;;;307.70;2304.00;;;;;;6246683;23;20039;-82
2022/11/19 00:06:24;;;;;;;213.18;157.65;;;307.60;2304.00;;;;;;6219832;23;20000;-84
2022/11/19 00:08:50;;;;;;;235.02;166.43;;;307.60;2304.00;;;;;;6219430;23;20095;-82
2022/11/19 00:14:04;;;;;;;343.38;222.18;;;307.60;2304.00;;;;;;6245796;23;20326;-82
2022/11/19 00:16:29;;;;;;;229.48;156.15;;;307.60;2304.00;;;;;;6219416;23;20004;-82
2022/11/19 00:18:55;;;;;;;250.45;177.48;;;307.60;2304.00;;;;;;6218479;23;20012;-82
2022/11/19 00:21:21;;;;;;;249.65;179.35;;;307.60;2304.00;;;;;;6220046;23;20003;-83
2022/11/19 00:23:46;;;;;;;216.38;154.90;;;307.60;2304.00;;;;;;6221552;23;20095;-82
2022/11/19 00:26:13;;;;;;;274.73;204.18;;;307.60;2304.00;;;;;;6221445;23;20000;-85
2022/11/19 00:28:40;;;;;;;293.63;219.32;;;307.50;2304.00;;;;;;6221440;23;20078;-83
2022/11/19 00:31:14;;;;;;;232.82;162.23;;;307.30;2304.00;;;;;;6221665;23;20004;-81
2022/11/19 00:33:41;;;;;;;252.32;181.98;;;307.40;2304.00;;;;;;6221798;23;20031;-81
2022/11/19 00:36:10;;;;;;;288.55;196.10;;;307.30;2304.00;;;;;;6221361;23;20000;-82
2022/11/19 00:38:37;;;;;;;239.07;163.32;;;307.20;2304.00;;;;;;6247949;23;20485;-82
2022/11/19 00:41:03;;;;;;;253.65;164.40;;;307.30;2304.00;;;;;;6221469;23;20361;-83
2022/11/19 00:43:48;;;;;;;293.42;178.27;;;307.30;2304.00;;;;;;6247748;23;20015;-83
2022/11/19 00:46:19;;;;;;;354.67;186.65;;;307.30;2304.00;;;;;;6220790;23;20075;-82
2022/11/19 00:48:47;;;;;;;175.93;115.47;;;307.30;2304.00;;;;;;6221080;23;20058;-82
2022/11/19 00:51:14;;;;;;;146.65;94.90;;;307.30;2304.00;;;;;;6231733;22;19995;-82
2022/11/19 00:53:39;;;;;;;138.60;79.97;;;307.30;2304.00;;;;;;6249858;22;20023;-83
2022/11/19 00:56:08;;;;;;;116.70;70.05;;;307.30;2304.00;;;;;;6249534;22;19992;-84
2022/11/19 00:58:35;;;;;;;103.50;66.55;;;307.30;2304.00;;;;;;6229337;23;20004;-83
2022/11/19 01:01:01;;;;;;;100.40;65.82;;;282.50;2278.40;;;;;;6222388;23;20000;-84
2022/11/19 01:03:27;;;;;;;112.25;68.13;;;307.30;2304.00;;;;;;6221586;23;20081;-82
2022/11/19 01:05:53;;;;;;;91.60;63.45;;;307.30;2304.00;;;;;;6222310;23;20420;-84
2022/11/19 01:08:19;;;;;;;91.50;55.33;;;307.20;2304.00;;;;;;6222534;23;20000;-82
2022/11/19 01:10:45;;;;;;;85.65;53.13;;;307.20;2304.00;;;;;;6221885;23;20008;-83
2022/11/19 01:15:56;;;;;;;123.95;63.17;;;307.30;2304.00;;;;;;6248316;23;20007;-82
2022/11/19 01:18:22;;;;;;;92.97;58.40;;;307.20;2304.00;;;;;;6247979;23;19992;-83
2022/11/19 01:20:48;;;;;;;98.72;60.65;;;307.20;2304.00;;;;;;6221248;23;20144;-83
2022/11/19 01:23:13;;;;;;;70.10;47.60;;;307.20;2304.00;;;;;;6247845;23;19993;-83
2022/11/19 01:25:39;;;;;;;87.63;57.00;;;307.30;2304.00;;;;;;6220748;23;19997;-83
2022/11/19 01:28:05;;;;;;;89.50;57.13;;;307.30;2304.00;;;;;;6221244;23;20004;-83
2022/11/19 01:30:32;;;;;;;91.95;62.08;;;307.40;2304.00;;;;;;6221225;23;20000;-83
2022/11/19 01:32:58;;;;;;;75.50;51.00;;;307.30;2304.00;;;;;;6220475;23;20004;-83
2022/11/19 01:35:24;;;;;;;87.05;59.38;;;307.40;2304.00;;;;;;6221142;23;20380;-82
2022/11/19 01:37:50;;;;;;;76.68;51.05;;;307.50;2304.00;;;;;;6247871;23;20091;-84
2022/11/19 01:40:16;;;;;;;77.30;54.83;;;307.60;2304.00;;;;;;6220969;23;20008;-82
2022/11/19 01:42:52;;;;;;;74.13;52.20;;;307.50;2304.00;;;;;;6221319;23;20032;-82
2022/11/19 01:45:38;;;;;;;65.93;45.92;;;307.40;2304.00;;;;;;6247372;23;20065;-82
2022/11/19 01:48:11;;;;;;;71.18;47.85;;;307.40;2304.00;;;;;;6220932;23;20000;-83
2022/11/19 01:50:47;;;;;;;67.85;46.70;;;307.60;2304.00;;;;;;6220954;23;20083;-83
2022/11/19 01:53:13;;;;;;;58.15;41.97;;;307.60;2304.00;;;;;;6247790;23;20071;-82
2022/11/19 01:55:42;;;;;;;52.00;38.25;;;307.60;2304.00;;;;;;6220621;23;20585;-83
2022/11/19 01:58:10;;;;;;;60.05;40.03;;;307.60;2304.00;;;;;;6220913;23;20014;-81
2022/11/19 02:00:36;;;;;;;68.30;43.03;;;307.70;2304.00;;;;;;6220470;23;20000;-82
2022/11/19 02:03:02;;;;;;;63.70;40.72;;;307.70;2304.00;;;;;;6220242;23;20004;-82
2022/11/19 02:05:28;;;;;;;57.60;40.97;;;307.80;2304.00;;;;;;6247562;23;20071;-82
2022/11/19 02:07:57;;;;;;;84.15;51.33;;;307.80;2304.00;;;;;;6220660;23;20004;-83
2022/11/19 02:10:50;;;;;;;62.13;41.33;;;307.70;2304.00;;;;;;6220959;23;20004;-83
2022/11/19 02:13:27;;;;;;;40.58;28.52;;;307.70;2304.00;;;;;;6220636;23;20030;-82
2022/11/19 02:16:17;;;;;;;40.33;26.83;;;307.60;2304.00;;;;;;6220827;23;20054;-83
2022/11/19 02:18:55;;;;;;;36.53;25.80;;;307.70;2304.00;;;;;;6220875;23;19997;-82
2022/11/19 02:21:33;;;;;;;36.13;26.40;;;307.70;2304.00;;;;;;6220484;23;20299;-83
2022/11/19 02:24:36;;;;;;;46.67;32.17;;;307.60;2304.00;;;;;;6248159;23;20000;-82
2022/11/19 02:27:02;;;;;;;;;;;307.60;2304.00;;;;;;6221221;23;20007;-82
2022/11/19 02:29:30;;;;;;;34.80;24.90;;;307.60;2304.00;;;;;;6247326;23;19900;-82
2022/11/19 02:31:58;;;;;;;32.15;22.38;;;307.50;2304.00;;;;;;6248699;23;20027;-82
2022/11/19 02:34:33;;;;;;;32.13;23.05;;;307.50;2304.00;;;;;;6220489;23;20050;-83
2022/11/19 02:37:09;;;;;;;31.23;23.75;;;307.50;2304.00;;;;;;6247196;23;19999;-82
2022/11/19 02:39:40;;;;;;;33.90;24.80;;;307.50;2304.00;;;;;;6244304;23;20024;-83
2022/11/19 02:42:40;;;;;;;31.67;22.10;;;307.50;2304.00;;;;;;6245149;23;20004;-83
2022/11/19 02:45:34;;;;;;;29.42;22.50;;;307.60;2304.00;;;;;;6119249;22;20019;-83
2022/11/19 02:48:07;;;;;;;32.53;24.27;;;307.50;2304.00;;;;;;6247026;22;19997;-82
2022/11/19 02:50:38;;;;;;;34.25;23.88;;;307.50;2304.00;;;;;;6247557;22;19996;-83
2022/11/19 02:53:04;;;;;;;36.75;26.35;;;307.50;2304.00;;;;;;6250908;23;20008;-82
2022/11/19 02:55:30;;;;;;;32.63;23.08;;;307.50;2304.00;;;;;;6250402;23;20007;-83
2022/11/19 02:58:05;;;;;;;31.60;24.00;;;307.50;2304.00;;;;;;6251362;23;19996;-82
2022/11/19 03:06:27;;;;;;;29.35;21.67;;;307.40;2304.00;;;;;;6251106;23;20011;-82
2022/11/19 03:08:53;;;;;;;29.90;23.40;;;307.40;2304.00;;;;;;6248043;23;20027;-84
2022/11/19 03:11:22;;;;;;;30.98;22.02;;;307.40;2304.00;;;;;;6245824;23;20369;-83
2022/11/19 03:17:05;;;;;;;36.17;26.25;;;307.50;2304.00;;;;;;6246945;23;20050;-83
2022/11/19 03:19:33;;;;;;;35.83;24.27;;;307.50;2304.00;;;;;;6245384;23;20005;-82
2022/11/19 03:22:20;;;;;;;27.85;21.08;;;307.50;2304.00;;;;;;6245635;23;20075;-83
2022/11/19 03:25:09;;;;;;;28.70;22.48;;;307.40;2304.00;;;;;;6245110;23;20005;-83
2022/11/19 03:27:42;;;;;;;26.70;20.48;;;307.40;2304.00;;;;;;6247128;22;20490;-83
2022/11/19 03:30:10;;;;;;;21.92;17.73;;;307.30;2304.00;;;;;;6247088;22;20046;-84
2022/11/19 03:32:50;;;;;;;21.98;17.40;;;307.30;2304.00;;;;;;6245517;23;20433;-84
2022/11/19 03:35:20;;;;;;;24.75;19.67;;;307.30;2304.00;;;;;;6245666;23;20055;-83
2022/11/19 03:37:51;;;;;;;23.58;20.17;;;307.30;2304.00;;;;;;6244954;23;20442;-85
2022/11/19 03:40:19;;;;;;;21.15;16.67;;;307.40;2304.00;;;;;;6246961;22;20000;-84
2022/11/19 03:42:48;;;;;;;20.25;16.40;;;307.40;2304.00;;;;;;6246860;22;20001;-84
2022/11/19 03:45:41;;;;;;;21.90;16.55;;;307.40;2304.00;;;;;;6244910;23;20008;-82
2022/11/19 03:48:07;;;;;;;;;;;307.40;2304.00;;;;;;6245923;23;20000;-83
2022/11/19 03:50:38;;;;;;;15.02;12.43;;;307.40;2304.00;;;;;;6245488;23;19899;-82
2022/11/19 03:53:04;;;;;;;15.27;12.80;;;307.30;2304.00;;;;;;6246655;23;20071;-84
2022/11/19 03:55:42;;;;;;;19.23;13.98;;;307.30;2304.00;;;;;;6245072;23;20350;-84
2022/11/19 03:58:10;;;;;;;17.08;13.63;;;307.40;2304.00;;;;;;6245033;23;20502;-82
2022/11/19 04:00:36;;;;;;;15.68;11.85;;;307.40;2304.00;;;;;;6245283;23;20004;-84
2022/11/19 04:03:02;;;;;;;14.68;12.15;;;307.30;2304.00;;;;;;6245360;23;20050;-84
2022/11/19 04:05:28;;;;;;;17.70;13.27;;;307.40;2304.00;;;;;;6245022;23;20441;-83
2022/11/19 04:07:54;;;;;;;14.10;10.65;;;307.40;2304.00;;;;;;6246861;23;19996;-84
2022/11/19 04:10:20;;;;;;;13.50;10.23;;;307.40;2304.00;;;;;;6245229;23;20053;-83
2022/11/19 04:12:45;;;;;;;16.15;10.50;;;307.40;2304.00;;;;;;6245035;23;20031;-82
2022/11/19 04:15:12;;;;;;;13.60;10.77;;;307.30;2304.00;;;;;;6245278;23;20054;-83
2022/11/19 04:17:38;;;;;;;12.27;10.02;;;307.30;2304.00;;;;;;6245238;23;20000;-84
2022/11/19 04:20:06;;;;;;;11.32;9.45;;;307.30;2304.00;;;;;;6244914;23;20003;-84
2022/11/19 04:22:32;;;;;;;10.95;8.48;;;307.30;2304.00;;;;;;6245007;23;20000;-85
2022/11/19 04:24:57;;;;;;;10.60;9.18;;;307.30;2304.00;;;;;;6246581;22;20039;-82
2022/11/19 04:27:23;;;;;;;13.52;10.45;;;307.30;2304.00;;;;;;6244774;23;20321;-84
2022/11/19 04:29:49;;;;;;;17.13;11.55;;;307.30;2304.00;;;;;;6245144;23;20000;-82
2022/11/19 04:32:15;;;;;;;16.55;11.93;;;307.30;2304.00;;;;;;6245186;23;20031;-82
2022/11/19 04:34:41;;;;;;;13.68;10.15;;;307.20;2304.00;;;;;;6246301;22;20063;-83
2022/11/19 04:37:06;;;;;;;14.93;11.23;;;307.20;2304.00;;;;;;6244113;23;20007;-82
2022/11/19 04:39:32;;;;;;;16.48;12.35;;;307.30;2304.00;;;;;;6244898;23;20016;-83
2022/11/19 04:41:58;;;;;;;12.57;9.48;;;307.20;2304.00;;;;;;6243354;23;20004;-83
2022/11/19 04:44:24;;;;;;;13.93;10.70;;;307.20;2304.00;;;;;;6246353;22;20004;-82
2022/11/19 04:46:49;;;;;;;16.10;11.02;;;307.20;2304.00;;;;;;6245185;23;20008;-82
2022/11/19 04:49:15;;;;;;;15.73;11.52;;;307.20;2304.00;;;;;;6244695;23;20008;-84
2022/11/19 04:51:41;;;;;;;12.45;9.10;;;307.20;2304.00;;;;;;6244597;23;20011;-83
2022/11/19 04:54:09;;;;;;;10.68;7.60;;;307.20;2304.00;;;;;;6246174;23;20032;-83
2022/11/19 04:56:36;;;;;;;11.27;8.40;;;307.20;2304.00;;;;;;6245110;23;20000;-83
2022/11/19 04:59:02;;;;;;;10.13;7.65;;;307.20;2304.00;;;;;;6245055;23;20461;-84
2022/11/19 05:01:28;;;;;;;8.10;6.60;;;307.60;2304.00;;;;;;6244715;23;20004;-86
2022/11/19 05:03:54;;;;;;;13.15;9.40;;;307.20;2304.00;;;;;;6246440;23;20028;-83
2022/11/19 05:06:19;;;;;;;14.07;8.52;;;307.20;2304.00;;;;;;6245074;23;20004;-83
2022/11/19 05:08:45;;;;;;;10.75;7.65;;;307.30;2304.00;;;;;;6246199;23;20303;-82
2022/11/19 05:11:11;;;;;;;10.73;7.93;;;307.30;2304.00;;;;;;6246795;23;20321;-81
2022/11/19 05:13:37;;;;;;;9.75;7.80;;;307.30;2304.00;;;;;;6246758;23;20440;-81
2022/11/19 05:16:03;;;;;;;10.65;7.72;;;307.30;2304.00;;;;;;6246249;23;20004;-83
2022/11/19 05:18:29;;;;;;;10.20;7.60;;;307.30;2304.00;;;;;;6248022;22;20079;-83
2022/11/19 05:20:55;;;;;;;17.73;11.38;;;307.30;2304.00;;;;;;6246668;23;20398;-84
2022/11/19 05:23:21;;;;;;;19.75;14.00;;;307.20;2304.00;;;;;;6246355;23;20082;-83
2022/11/19 05:25:47;;;;;;;19.02;14.50;;;307.20;2304.00;;;;;;6248127;22;19992;-83
2022/11/19 05:28:12;;;;;;;20.80;13.38;;;307.20;2304.00;;;;;;6248267;22;20026;-82
2022/11/19 05:30:38;;;;;;;32.25;21.63;;;307.30;2304.00;;;;;;6247826;23;20024;-82
2022/11/19 05:33:04;;;;;;;32.20;21.10;;;307.30;2304.00;;;;;;6246389;23;20414;-82
2022/11/19 05:35:30;;;;;;;30.83;22.77;;;307.20;2304.00;;;;;;6246516;23;20001;-82
2022/11/19 05:37:56;;;;;;;31.17;22.73;;;307.20;2304.00;;;;;;6245717;23;20456;-82
2022/11/19 05:40:22;;;;;;;33.50;25.38;;;307.30;2304.00;;;;;;6246727;23;20001;-83
2022/11/19 05:42:48;;;;;;;36.45;28.73;;;307.30;2304.00;;;;;;6246488;23;20070;-83
2022/11/19 05:45:14;;;;;;;34.83;26.30;;;307.30;2304.00;;;;;;6246028;23;20330;-82
2022/11/19 05:47:39;;;;;;;32.08;21.88;;;307.20;2304.00;;;;;;6246422;23;20004;-82
2022/11/19 05:50:05;;;;;;;27.23;22.60;;;307.20;2304.00;;;;;;6246310;23;20437;-82
2022/11/19 05:52:31;;;;;;;27.63;22.20;;;307.30;2304.00;;;;;;6246485;23;20000;-83
2022/11/19 05:54:57;;;;;;;28.05;21.85;;;282.50;2278.40;;;;;;6246433;23;20440;-82
2022/11/19 05:57:23;;;;;;;26.83;21.65;;;282.30;2278.40;;;;;;6246098;23;20008;-85
2022/11/19 05:59:49;;;;;;;28.40;23.88;;;282.50;2278.40;;;;;;6246415;23;19997;-83
2022/11/19 06:02:14;;;;;;;24.48;21.05;;;282.50;2278.40;;;;;;6246421;23;20000;-83
2022/11/19 06:04:40;;;;;;;26.73;21.45;;;282.50;2278.40;;;;;;6247189;23;20407;-83
2022/11/19 06:07:06;;;;;;;26.45;21.05;;;282.50;2278.40;;;;;;6246119;23;20000;-83
2022/11/19 06:09:32;;;;;;;22.00;17.73;;;282.40;2278.40;;;;;;6247947;23;19996;-85
2022/11/19 06:11:58;;;;;;;20.10;16.02;;;282.40;2278.40;;;;;;6246006;23;20000;-83
2022/11/19 06:14:25;;;;;;;19.10;17.00;;;282.40;2278.40;;;;;;6245894;23;20004;-82
2022/11/19 06:16:56;;;;;;;19.75;15.70;;;282.30;2278.40;;;;;;6246046;23;20001;-83
2022/11/19 06:19:23;;;;;;;23.83;19.10;;;282.30;2278.40;;;;;;6244868;23;20000;-83
2022/11/19 06:21:49;;;;;;;21.90;18.13;;;282.30;2278.40;;;;;;6246430;23;20011;-82
2022/11/19 06:24:15;;;;;;;20.60;17.75;;;282.30;2278.40;;;;;;6247515;22;20036;-82
2022/11/19 06:26:41;;;;;;;19.77;15.98;;;282.30;2278.40;;;;;;6246218;23;20008;-82
2022/11/19 06:29:07;;;;;;;19.02;16.35;;;282.40;2278.40;;;;;;6246479;23;20326;-82
2022/11/19 06:31:33;;;;;;;21.83;17.13;;;282.20;2278.40;;;;;;6245966;23;20000;-83
2022/11/19 06:33:59;;;;;;;20.23;16.77;;;282.20;2278.40;;;;;;6245741;23;20439;-83
2022/11/19 06:36:25;;;;;;;20.65;17.23;;;282.20;2278.40;;;;;;6245888;23;20024;-83
2022/11/19 06:38:51;;;;;;;28.17;20.42;;;282.10;2278.40;;;;;;6245303;23;20519;-85
2022/11/19 06:41:18;;;;;;;25.40;19.33;;;282.10;2278.40;;;;;;6245631;23;20000;-84
2022/11/19 06:43:44;;;;;;;26.40;20.77;;;282.10;2278.40;;;;;;6245938;23;20098;-84
2022/11/19 06:46:11;;;;;;;26.50;19.30;;;282.10;2278.40;;;;;;6246123;22;20028;-84
2022/11/19 06:48:37;;;;;;;25.10;19.60;;;282.10;2278.40;;;;;;6245154;23;20085;-84
2022/11/19 06:51:03;;;;;;;28.33;21.15;;;282.20;2278.40;;;;;;6244824;23;20000;-84
2022/11/19 06:53:29;;;;;;;33.85;22.20;;;282.20;2278.40;;;;;;6246356;23;20078;-84
2022/11/19 06:55:59;;;;;;;27.10;22.27;;;282.30;2278.40;;;;;;6245726;23;20028;-81
2022/11/19 06:58:25;;;;;;;24.70;19.52;;;282.30;2278.40;;;;;;6245844;23;20032;-84
2022/11/19 07:00:51;;;;;;;25.88;20.92;;;282.30;2278.40;;;;;;6245440;23;20317;-82
2022/11/19 07:03:17;;;;;;;26.88;22.20;;;282.40;2278.40;;;;;;6247128;23;19996;-85
2022/11/19 07:05:43;;;;;;;28.20;21.65;;;282.40;2278.40;;;;;;6246917;22;19996;-84
2022/11/19 07:08:09;;;;;;;25.95;20.90;;;282.50;2278.40;;;;;;6246863;22;20023;-83
2022/11/19 07:10:34;;;;;;;23.83;20.23;;;282.50;2278.40;;;;;;6245732;23;20102;-84
2022/11/19 07:13:01;;;;;;;23.92;20.20;;;282.40;2278.40;;;;;;6245672;23;20003;-85
2022/11/19 07:15:27;;;;;;;27.00;21.08;;;282.50;2278.40;;;;;;6245304;23;20008;-83
2022/11/19 07:17:53;;;;;;;43.75;21.90;;;282.50;2278.40;;;;;;6245636;23;20008;-83
2022/11/19 07:20:19;;;;;;;25.27;20.10;;;282.50;2278.40;;;;;;6245664;23;20000;-84
2022/11/19 07:22:45;;;;;;;28.60;21.98;;;282.50;2278.40;;;;;;6245243;23;20004;-84
2022/11/19 07:25:14;;;;;;;26.05;21.60;;;282.50;2278.40;;;;;;6245252;23;20394;-84
2022/11/19 07:27:42;;;;;;;23.80;19.40;;;282.50;2278.40;;;;;;6245552;23;19996;-84
2022/11/19 07:30:09;;;;;;;21.40;17.45;;;282.50;2278.40;;;;;;6244939;23;20000;-83
2022/11/19 07:32:35;;;;;;;22.98;18.63;;;282.50;2278.40;;;;;;6245502;23;20058;-85
2022/11/19 07:35:01;;;;;;;22.33;19.35;;;307.20;2304.00;;;;;;6245402;23;20008;-84
2022/11/19 07:37:26;;;;;;;19.55;17.48;;;282.50;2278.40;;;;;;6245587;23;20528;-84
2022/11/19 07:39:52;;;;;;;22.08;18.67;;;307.20;2304.00;;;;;;6219705;23;20028;-83
2022/11/19 07:45:03;;;;;;;20.33;17.50;;;307.20;2304.00;;;;;;6246545;23;20401;-84
2022/11/19 07:47:29;;;;;;;23.67;20.00;;;307.30;2304.00;;;;;;6247028;23;20329;-84
2022/11/19 07:49:54;;;;;;;24.35;20.27;;;307.30;2304.00;;;;;;6219587;23;20007;-83
2022/11/19 07:52:20;;;;;;;23.55;20.33;;;307.30;2304.00;;;;;;6220386;23;20422;-84
2022/11/19 07:54:46;;;;;;;22.92;19.45;;;307.40;2304.00;;;;;;6219980;23;20000;-84
2022/11/19 07:57:13;;;;;;;25.35;21.15;;;307.40;2304.00;;;;;;6246286;23;20000;-81
2022/11/19 07:59:38;;;;;;;26.02;21.27;;;307.30;2304.00;;;;;;6219836;23;20004;-85
2022/11/19 08:02:05;;;;;;;24.98;19.95;;;307.50;2304.00;;;;;;6219896;23;20031;-84
2022/11/19 08:04:30;;;;;;;24.73;20.48;;;307.50;2304.00;;;;;;6219613;23;20035;-83
2022/11/19 08:06:56;;;;;;;22.85;19.63;;;307.30;2304.00;;;;;;6219870;23;20456;-84
2022/11/19 08:09:22;;;;;;;22.67;19.48;;;307.20;2304.00;;;;;;6220143;23;20000;-84
2022/11/19 08:11:48;;;;;;;21.25;18.23;;;307.20;2304.00;;;;;;6219709;23;20000;-84
2022/11/19 08:14:14;;;;;;;25.45;19.35;;;307.20;2304.00;;;;;;6219930;23;20452;-84
2022/11/19 08:19:24;;;;;;;23.23;20.25;;;307.30;2304.00;;;;;;6246102;23;20095;-84
2022/11/19 08:21:50;;;;;;;23.40;20.85;;;307.30;2304.00;;;;;;6220060;23;20032;-85
2022/11/19 08:24:18;;;;;;;25.80;20.83;;;307.30;2304.00;;;;;;6219448;23;20430;-85
2022/11/19 08:26:45;;;;;;;27.05;22.15;;;307.40;2304.00;;;;;;6246685;23;19996;-84
2022/11/19 08:29:13;;;;;;;38.03;28.58;;;307.40;2304.00;;;;;;6219884;23;20004;-83
2022/11/19 08:31:40;;;;;;;34.58;26.85;;;307.30;2304.00;;;;;;6218952;23;20000;-83
2022/11/19 08:34:06;;;;;;;36.80;27.60;;;307.30;2304.00;;;;;;6246491;23;20321;-83
2022/11/19 08:36:32;;;;;;;28.10;21.85;;;307.30;2304.00;;;;;;6219794;23;19996;-84
2022/11/19 08:38:59;;;;;;;142.65;83.65;;;307.40;2304.00;;;;;;6234666;23;20488;-84
2022/11/19 08:44:11;;;;;;;80.32;58.63;;;307.40;2304.00;;;;;;6247898;23;20034;-83
2022/11/19 08:46:37;;;;;;;34.40;26.58;;;307.60;2304.00;;;;;;6246605;23;20004;-82
2022/11/19 08:49:03;;;;;;;30.02;24.58;;;307.60;2304.00;;;;;;6246709;23;20410;-81
2022/11/19 08:51:29;;;;;;;27.65;21.85;;;307.80;2304.00;;;;;;6246925;23;20327;-83
2022/11/19 08:53:55;;;;;;;30.63;24.60;;;307.80;2304.00;;;;;;6246506;23;20008;-84
2022/11/19 08:56:21;;;;;;;41.83;34.05;;;307.80;2304.00;;;;;;6246457;23;20003;-81
2022/11/19 08:58:47;;;;;;;31.05;26.20;;;307.70;2304.00;;;;;;6246541;23;20006;-83
2022/11/19 09:01:15;;;;;;;35.90;27.00;;;307.80;2304.00;;;;;;6246322;23;19996;-82
2022/11/19 09:03:42;;;;;;;36.03;27.77;;;308.10;2304.00;;;;;;6246785;23;20090;-82
2022/11/19 09:06:08;;;;;;;38.97;31.23;;;307.90;2304.00;;;;;;6246249;23;20368;-83
2022/11/19 09:08:34;;;;;;;42.63;35.85;;;308.10;2304.00;;;;;;6248003;22;20071;-80
2022/11/19 09:11:04;;;;;;;37.72;31.80;;;308.00;2304.00;;;;;;6246297;23;20000;-82
2022/11/19 09:13:30;;;;;;;35.88;28.95;;;308.00;2304.00;;;;;;6246057;23;20448;-82
2022/11/19 09:15:56;;;;;;;25.77;23.00;;;308.10;2304.00;;;;;;6246597;23;20036;-82
2022/11/19 09:18:22;;;;;;;23.02;20.52;;;308.10;2304.00;;;;;;6246387;23;20369;-83
2022/11/19 09:20:55;;;;;;;26.60;23.25;;;308.10;2304.00;;;;;;6246452;23;20325;-83
2022/11/19 09:23:22;;;;;;;27.00;22.65;;;308.10;2304.00;;;;;;6246752;23;20024;-82
2022/11/19 09:26:03;;;;;;;25.55;18.52;;;332.80;2329.60;;;;;;6247968;23;20074;-80
2022/11/19 09:28:30;;;;;;;31.30;24.40;;;332.80;2329.60;;;;;;6247170;23;20004;-79
2022/11/19 09:31:05;;;;;;;25.77;20.90;;;332.90;2048.00;;;;;;6247146;23;20047;-81
2022/11/19 09:33:32;;;;;;;24.70;20.00;;;332.80;2329.60;;;;;;6247698;23;20707;-82
2022/11/19 09:35:58;;;;;;;26.58;20.05;;;332.90;2329.60;;;;;;6248655;22;20409;-82
2022/11/19 09:38:24;;;;;;;21.40;19.02;;;332.80;2329.60;;;;;;6247093;23;20102;-79
2022/11/19 09:40:55;;;;;;;22.58;19.83;;;332.80;2329.60;;;;;;6247094;23;20008;-82
2022/11/19 09:43:48;;;;;;;21.77;19.50;;;308.10;2304.00;;;;;;6245825;23;20007;-83
2022/11/19 09:46:28;;;;;;;26.20;20.77;;;332.80;2329.60;;;;;;6246114;23;20461;-82
2022/11/19 09:48:58;;;;;;;32.03;25.23;;;332.90;2329.60;;;;;;6245918;23;20000;-82
2022/11/19 09:51:31;;;;;;;29.00;22.08;;;333.20;2329.60;;;;;;6246030;23;20325;-83
2022/11/19 09:54:04;;;;;;;32.55;26.30;;;333.10;2329.60;;;;;;6245704;23;20004;-80
2022/11/19 09:56:43;;;;;;;33.25;28.73;;;333.20;2329.60;;;;;;6245781;23;19997;-83
2022/11/19 09:59:33;;;;;;;30.20;25.60;;;333.30;2329.60;;;;;;6246232;23;20086;-81
2022/11/19 10:01:59;;;;;;;40.42;33.13;;;333.30;2329.60;;;;;;6246102;23;20001;-81
2022/11/19 10:04:29;;;;;;;31.70;21.95;;;333.40;2329.60;;;;;;6245899;23;20054;-82
2022/11/19 10:07:05;;;;;;;34.65;25.40;;;333.30;2329.60;;;;;;6251893;22;19980;-80
2022/11/19 10:09:36;;;;;;;23.33;20.40;;;333.50;2329.60;;;;;;6274172;22;20004;-79
2022/11/19 10:12:16;;;;;;;30.52;21.65;;;333.50;2329.60;;;;;;6274500;22;19989;-80
2022/11/19 10:15:19;;;;;;;25.13;18.88;;;333.40;2329.60;;;;;;6254667;22;20011;-81
2022/11/19 10:18:33;;;;;;;21.85;17.85;;;333.30;2329.60;;;;;;6245452;23;20000;-82
2022/11/19 10:21:21;;;;;;;33.95;26.75;;;333.40;2329.60;;;;;;6212648;23;20027;-79
2022/11/19 10:23:53;;;;;;;71.25;47.08;;;333.40;2329.60;;;;;;6222134;23;20442;-81
2022/11/19 10:26:29;;;;;;;36.88;26.60;;;333.40;2329.60;;;;;;6245803;23;20003;-79
2022/11/19 10:28:57;;;;;;;47.17;36.47;;;333.40;2329.60;;;;;;6245560;23;20004;-81
2022/11/19 10:31:36;;;;;;;41.10;35.60;;;333.40;2329.60;;;;;;6247011;22;20031;-82
2022/11/19 10:34:12;;;;;;;34.70;26.50;;;333.50;2329.60;;;;;;6245886;23;20380;-82
2022/11/19 10:37:03;;;;;;;27.85;18.58;;;333.50;2329.60;;;;;;6245642;23;20000;-83
2022/11/19 10:39:42;;;;;;;26.60;22.63;;;333.50;2329.60;;;;;;6245490;23;20054;-82
2022/11/19 10:42:27;;;;;;;24.67;20.08;;;333.70;2329.60;;;;;;6245749;23;20083;-77
2022/11/19 10:44:57;;;;;;;37.80;25.13;;;333.70;2329.60;;;;;;6246433;22;20083;-80
2022/11/19 10:47:46;;;;;;;32.58;22.73;;;358.60;2329.60;;;;;;6246887;22;20023;-79
2022/11/19 10:50:23;;;;;;;32.05;22.70;;;358.60;2329.60;;;;;;6245321;23;20004;-78
2022/11/19 10:52:52;;;;;;;28.95;25.20;;;358.60;2329.60;;;;;;6245047;23;20015;-80
2022/11/19 10:55:27;;;;;;;31.73;22.40;;;358.60;2329.60;;;;;;6245325;23;20010;-79
2022/11/19 10:58:10;;;;;;;28.42;21.63;;;358.60;2329.60;;;;;;6245471;23;20000;-78
2022/11/19 11:00:38;;;;;;;88.32;61.42;;;358.50;2329.60;;;;;;6245275;23;20000;-80
2022/11/19 11:03:10;;;;;;;119.88;82.60;;;358.40;2329.60;;;;;;6246608;22;20031;-81
2022/11/19 11:06:05;;;;;;;41.42;31.50;;;358.40;2329.60;;;;;;6244566;23;20429;-78
2022/11/19 11:08:32;;;;;;;44.10;33.92;;;358.40;2329.60;;;;;;6231681;23;19997;-80
2022/11/19 11:10:58;;;;;;;32.30;25.05;;;358.40;2329.60;;;;;;6246838;22;19998;-81
2022/11/19 11:16:21;;;;;;;28.05;20.13;;;358.40;2329.60;;;;;;6246650;23;20015;-81
2022/11/19 11:18:47;;;;;;;19.52;15.35;;;333.70;2329.60;;;;;;6246085;22;20019;-79
2022/11/19 11:21:37;;;;;;;24.80;19.80;;;333.70;2329.60;;;;;;6244587;23;20004;-79
2022/11/19 11:24:03;;;;;;;22.30;18.27;;;333.70;2329.60;;;;;;6245206;23;20338;-78
2022/11/19 11:26:32;;;;;;;22.70;17.83;;;358.40;2329.60;;;;;;6245152;23;20065;-80
2022/11/19 11:29:18;;;;;;;30.48;21.17;;;358.40;2329.60;;;;;;6245029;23;20004;-80
2022/11/19 11:31:46;;;;;;;28.30;19.60;;;358.50;2329.60;;;;;;6218744;23;20060;-79
2022/11/19 11:34:41;;;;;;;25.38;18.63;;;358.50;2329.60;;;;;;6246365;22;19996;-80
2022/11/19 11:37:09;;;;;;;23.10;13.57;;;358.60;2329.60;;;;;;6244977;22;20027;-79
2022/11/19 11:39:43;;;;;;;25.42;13.88;;;358.60;2329.60;;;;;;6244447;23;20020;-80
2022/11/19 11:42:15;;;;;;;23.85;15.77;;;358.50;2329.60;;;;;;6243790;23;20082;-80
2022/11/19 11:44:52;;;;;;;21.17;14.30;;;358.50;2329.60;;;;;;6243603;23;20084;-79
2022/11/19 11:47:27;;;;;;;25.75;17.88;;;358.50;2329.60;;;;;;6244422;23;20009;-81
2022/11/19 11:50:12;;;;;;;36.70;21.85;;;358.50;2329.60;;;;;;6244819;22;19992;-81
2022/11/19 11:52:45;;;;;;;30.05;20.77;;;358.50;2329.60;;;;;;6244861;23;20001;-80
2022/11/19 11:55:13;;;;;;;38.45;24.58;;;358.50;2329.60;;;;;;6246583;22;20000;-81
2022/11/19 11:57:55;;;;;;;36.70;27.90;;;358.50;2329.60;;;;;;6244717;23;20091;-81
2022/11/19 12:00:33;;;;;;;34.25;26.77;;;358.50;2329.60;;;;;;6245176;23;20436;-81
2022/11/19 12:03:12;;;;;;;62.17;41.20;;;358.40;2329.60;;;;;;6245147;23;20008;-82
2022/11/19 12:05:50;;;;;;;45.70;33.33;;;333.70;2329.60;;;;;;6246598;22;19997;-80
2022/11/19 12:08:41;;;;;;;47.92;34.90;;;358.40;2329.60;;;;;;6245332;23;20008;-80
2022/11/19 12:11:55;;;;;;;43.75;31.23;;;358.40;2329.60;;;;;;6245093;23;20000;-81
2022/11/19 12:14:29;;;;;;;36.85;27.35;;;358.50;2329.60;;;;;;6246136;22;20000;-80
2022/11/19 12:17:03;;;;;;;37.85;30.58;;;358.40;2329.60;;;;;;6246155;23;20000;-80
2022/11/19 12:19:41;;;;;;;42.40;30.48;;;358.40;2329.60;;;;;;6245517;23;20028;-81
2022/11/19 12:22:45;;;;;;;54.70;40.65;;;358.40;2329.60;;;;;;6247144;23;20283;-84
2022/11/19 12:25:49;;;;;;;49.72;34.78;;;333.70;2329.60;;;;;;6226499;23;20030;-87
2022/11/19 12:28:40;;;;;;;39.13;29.23;;;333.70;2329.60;;;;;;6101710;23;20361;-84
2022/11/19 12:31:41;;;;;;;43.25;32.63;;;333.70;2329.60;;;;;;6101184;23;20006;-82
2022/11/19 12:34:49;;;;;;;47.63;32.83;;;358.40;2329.60;;;;;;6227908;23;20004;-81
2022/11/19 12:37:24;;;;;;;158.43;79.22;;;333.70;2329.60;;;;;;6164485;23;20513;-81
2022/11/19 12:40:02;;;;;;;145.85;78.90;;;333.70;2329.60;;;;;;6246556;23;20103;-83
2022/11/19 12:42:50;;;;;;;322.15;158.25;;;333.70;2329.60;;;;;;6247289;23;19997;-83